Manitowoc, WI

2:21 PM CDT on July 24, 2016 (GMT -0500)
Manitowoc County | | Change Station

Elev 650 ft 44.13 °N, 87.68 °W | Updated 25 minutes ago

Overcast
Overcast
76 °F
Feels Like 76 °F
N
13
Wind Variable Wind from South

Today
High -- | Low -- °F
--% Chance of Precip.
Yesterday
High -- | Low -- °F
Precip. -- in
Pressure 29.85 in
Visibility 7.0 miles
Clouds Overcast 600 ft
Dew Point 72 °F
Humidity 87%
Rainfall 0.46 in
Snow Depth Not available.
5:30 AM 8:23 PM
Waning Gibbous, 74% visible
METAR KMTW 241856Z AUTO 17011KT 7SM OVC006 24/22 A2982 RMK AO2 SLP107 P0003 T02440222
Pressure 29.85 in
Visibility 7.0 miles
Clouds Overcast 600 ft
Dew Point 72 °F
Humidity 87%
Rainfall 0.46 in
Snow Depth Not available.
5:30 AM 8:23 PM
Waning Gibbous, 74% visible
METAR KMTW 241856Z AUTO 17011KT 7SM OVC006 24/22 A2982 RMK AO2 SLP107 P0003 T02440222

10-Day Weather Forecast

Almanac

Astronomy

Jul. 24, 2016 Rise Set
Actual Time
Civil Twilight
Nautical Twilight
Astronomical Twilight
Moon
Length of Visible Light
Length of Day
Tomorrow will be .
, % of the Moon is Illuminated

Today's Extremes

State Highs State Lows

Community

WunderPhotos

Upload Photos

1,927,172 photos uploaded!

WunderBlog® & News

Nearby

Air Quality

  Air Quality AQ Index Pollutant
Not available.

Snow Depth

Station Depth Elevation

Earthquake Activity

City Distance Mag. Time & Date
Minimum magnitude displayed is 2.5.

Coastal Water Temperatures

Place Temperature

Stations

Nearby Weather Stations

Station Location Temp. Windchill Dew Point Humidity Wind Precip. Elev Updated Type
                   

Watches & Warnings

There are currently no watches in effect.